Time;durP1;ratioP1;P1;durP2;ratioP2;P2;SDS_P1;SDS_P2;PMS_P1;PMS_P2;Temp;Humidity;BMP_temperature;BMP_pressure;BME280_temperature;BME280_humidity;BME280_pressure;Samples;Min_cycle;Max_cycle;Signal;HPM_P1;HPM_P2
2023/07/27 00:00:41;;;;;;;8.77;4.63;;;;;;;17.79;75.23;100914.19;5096430;28;20031;-58
2023/07/27 00:03:07;;;;;;;7.47;4.28;;;;;;;17.66;75.80;100904.59;5096340;28;20035;-57
2023/07/27 00:05:32;;;;;;;7.22;4.78;;;;;;;17.61;76.50;100906.47;5096225;28;20032;-58
2023/07/27 00:07:58;;;;;;;8.32;4.35;;;;;;;17.55;76.93;100906.56;5096323;28;20028;-58
2023/07/27 00:10:24;;;;;;;7.80;4.65;;;;;;;17.57;77.47;100897.63;5096270;28;20485;-57
2023/07/27 00:12:50;;;;;;;9.60;4.65;;;;;;;17.54;77.84;100900.34;5096021;28;20070;-58
2023/07/27 00:15:15;;;;;;;8.77;4.82;;;;;;;17.50;77.93;100899.50;5096144;28;20039;-59
2023/07/27 00:17:41;;;;;;;10.07;4.97;;;;;;;17.45;78.29;100895.16;5096097;28;20024;-58
2023/07/27 00:20:06;;;;;;;7.15;4.55;;;;;;;17.45;78.66;100893.34;5095924;28;20031;-58
2023/07/27 00:22:32;;;;;;;13.07;5.00;;;;;;;17.45;78.33;100893.34;5096298;28;20429;-58
2023/07/27 00:24:57;;;;;;;8.10;4.75;;;;;;;17.40;78.48;100886.34;5096059;28;20412;-58
2023/07/27 00:27:23;;;;;;;7.82;4.88;;;;;;;17.38;79.40;100889.00;5096262;28;20077;-58
2023/07/27 00:29:48;;;;;;;6.97;4.68;;;;;;;17.38;79.83;100886.34;5077703;28;20040;-58
2023/07/27 00:32:13;;;;;;;8.73;4.70;;;;;;;17.41;79.80;100885.41;5095916;28;20071;-58
2023/07/27 00:34:39;;;;;;;8.15;4.47;;;;;;;17.43;79.50;100875.56;5096040;28;20028;-57
2023/07/27 00:37:04;;;;;;;6.55;4.60;;;;;;;17.38;80.57;100878.31;5095912;28;20035;-58
2023/07/27 00:39:30;;;;;;;7.93;4.60;;;;;;;17.47;79.09;100887.97;5095496;28;20405;-59
2023/07/27 00:41:55;;;;;;;7.80;4.95;;;;;;;17.44;80.23;100883.59;5095752;28;20024;-58
2023/07/27 00:44:21;;;;;;;8.30;4.60;;;;;;;17.37;80.22;100867.69;5095053;28;20366;-59
2023/07/27 00:46:46;;;;;;;7.85;4.65;;;;;;;17.34;81.23;100868.59;5095560;28;20028;-59
2023/07/27 00:49:12;;;;;;;10.18;4.75;;;;;;;17.24;81.42;100869.66;5095590;28;20477;-59
2023/07/27 00:51:42;;;;;;;9.43;4.93;;;;;;;17.05;82.31;100863.75;5095340;28;20028;-60
2023/07/27 00:54:09;;;;;;;8.30;4.95;;;;;;;17.05;82.64;100868.22;5095748;28;20020;-59
2023/07/27 00:56:37;;;;;;;7.05;4.68;;;;;;;17.01;82.96;100857.56;5095259;28;20031;-59
2023/07/27 00:59:03;;;;;;;8.73;4.57;;;;;;;17.00;83.33;100860.25;5095384;28;20103;-59
2023/07/27 01:01:29;;;;;;;7.78;4.55;;;;;;;16.95;83.52;100852.31;5095294;28;20043;-59
2023/07/27 01:03:55;;;;;;;8.68;5.00;;;;;;;17.01;83.84;100843.34;5095169;28;20024;-59
2023/07/27 01:06:20;;;;;;;10.13;5.13;;;;;;;16.94;83.25;100839.88;5077051;28;20024;-59
2023/07/27 01:08:46;;;;;;;8.30;4.85;;;;;;;17.01;84.24;100833.53;5095220;28;20024;-59
2023/07/27 01:11:17;;;;;;;8.63;5.15;;;;;;;17.08;83.87;100828.97;5095360;28;20035;-59
2023/07/27 01:13:47;;;;;;;8.48;4.97;;;;;;;17.07;82.60;100821.88;5094885;28;20028;-60
2023/07/27 01:16:21;;;;;;;7.95;4.93;;;;;;;17.06;84.01;100819.25;5094991;28;20031;-59
2023/07/27 01:19:00;;;;;;;9.73;5.18;;;;;;;17.05;83.87;100818.38;5094074;28;20072;-60
2023/07/27 01:21:34;;;;;;;9.68;5.05;;;;;;;17.06;84.29;100817.44;5094727;28;20103;-60
2023/07/27 01:24:18;;;;;;;8.18;5.45;;;;;;;17.04;84.28;100813.91;5094975;28;20060;-59
2023/07/27 01:27:02;;;;;;;8.75;5.07;;;;;;;17.02;84.39;100811.28;5095105;28;20044;-60
2023/07/27 01:29:57;;;;;;;8.63;5.30;;;;;;;16.90;85.93;100805.25;5094671;28;20390;-59
2023/07/27 01:32:27;;;;;;;7.22;4.90;;;;;;;16.98;86.01;100812.22;5094785;28;20035;-59
2023/07/27 01:34:57;;;;;;;8.10;5.07;;;;;;;17.06;85.75;100808.56;5094618;28;20032;-60
2023/07/27 01:37:25;;;;;;;10.50;5.07;;;;;;;17.14;85.16;100802.19;5094810;28;20111;-60
2023/07/27 01:39:53;;;;;;;9.85;5.30;;;;;;;17.24;84.88;100800.22;5094310;28;20040;-60
2023/07/27 01:42:22;;;;;;;7.78;4.88;;;;;;;17.19;85.07;100794.97;5094475;28;20082;-60
2023/07/27 01:44:49;;;;;;;9.13;5.20;;;;;;;17.14;85.26;100783.50;5094443;28;20032;-60
2023/07/27 01:47:16;;;;;;;7.63;5.30;;;;;;;17.16;84.39;100779.00;5094478;28;20032;-59
2023/07/27 01:49:44;;;;;;;8.57;5.00;;;;;;;17.08;85.62;100777.38;5094320;28;20031;-60
2023/07/27 01:52:12;;;;;;;9.20;5.50;;;;;;;16.99;85.36;100775.75;5094325;28;20492;-59
2023/07/27 01:54:39;;;;;;;8.98;5.13;;;;;;;16.90;86.03;100779.44;5094206;28;20081;-62
2023/07/27 01:57:06;;;;;;;8.70;5.40;;;;;;;16.96;86.35;100779.34;5093458;28;20504;-60
2023/07/27 01:59:32;;;;;;;11.07;5.50;;;;;;;16.86;87.01;100776.84;5094320;28;20020;-61
2023/07/27 02:01:58;;;;;;;10.48;5.78;;;;;;;16.82;87.13;100777.81;5094365;28;20470;-61
2023/07/27 02:04:24;;;;;;;8.82;5.85;;;;;;;16.78;87.47;100766.28;5094352;28;20058;-61
2023/07/27 02:06:50;;;;;;;10.20;6.05;;;;;;;16.83;87.70;100751.09;5094142;28;20115;-61
2023/07/27 02:09:16;;;;;;;10.50;5.50;;;;;;;16.90;87.24;100743.88;5094147;28;20063;-61
2023/07/27 02:11:45;;;;;;;8.57;5.57;;;;;;;16.93;87.44;100742.03;5094010;28;20028;-61
2023/07/27 02:14:16;;;;;;;9.30;5.50;;;;;;;17.01;87.57;100737.44;5094114;28;20035;-61
2023/07/27 02:16:45;;;;;;;9.77;5.45;;;;;;;16.97;87.69;100735.72;5093885;28;20047;-60
2023/07/27 02:19:15;;;;;;;8.13;5.25;;;;;;;16.99;87.28;100728.56;5093801;28;20016;-61
2023/07/27 02:21:42;;;;;;;7.93;5.40;;;;;;;16.90;87.59;100730.53;5093675;28;20024;-61
2023/07/27 02:24:08;;;;;;;9.57;5.57;;;;;;;16.86;88.17;100716.34;5093815;28;20024;-62
2023/07/27 02:26:34;;;;;;;9.15;5.28;;;;;;;16.81;88.54;100715.53;5093687;28;20043;-60
2023/07/27 02:29:00;;;;;;;8.85;5.80;;;;;;;16.77;88.21;100696.03;5093802;28;20477;-61
2023/07/27 02:31:25;;;;;;;9.25;5.80;;;;;;;16.63;89.43;100700.69;5093532;28;20035;-61
2023/07/27 02:33:50;;;;;;;8.25;5.63;;;;;;;16.59;89.75;100704.31;5093826;28;20021;-61
2023/07/27 02:36:16;;;;;;;10.40;5.10;;;;;;;16.61;88.93;100701.63;5093766;28;20024;-61
2023/07/27 02:38:42;;;;;;;8.13;5.38;;;;;;;16.51;89.64;100695.56;5093315;28;20048;-61
2023/07/27 02:41:11;;;;;;;9.32;5.60;;;;;;;16.48;90.56;100688.47;5093565;28;20035;-61
2023/07/27 02:43:37;;;;;;;8.77;5.80;;;;;;;16.47;91.00;100684.03;5093310;28;20031;-60
2023/07/27 02:46:04;;;;;;;7.97;4.88;;;;;;;16.58;89.94;100680.34;5093416;28;20036;-61
2023/07/27 02:48:30;;;;;;;8.57;5.68;;;;;;;16.67;90.44;100678.41;5093328;28;20500;-61
2023/07/27 02:50:55;;;;;;;8.65;5.85;;;;;;;16.67;90.53;100670.38;5093226;28;20107;-61
2023/07/27 02:53:21;;;;;;;10.73;5.85;;;;;;;16.75;90.32;100670.31;5093341;28;20028;-61
2023/07/27 02:55:59;;;;;;;9.18;5.40;;;;;;;16.76;90.34;100664.03;5093455;28;20031;-61
2023/07/27 02:58:26;;;;;;;9.63;5.47;;;;;;;16.76;90.27;100670.25;5093500;28;20028;-61
2023/07/27 03:00:54;;;;;;;9.13;5.32;;;;;;;16.74;90.03;100669.41;5093326;28;20074;-61
2023/07/27 03:03:19;;;;;;;9.27;5.50;;;;;;;16.75;90.62;100664.97;5093225;28;20025;-62
2023/07/27 03:05:44;;;;;;;9.82;5.40;;;;;;;16.72;90.79;100656.97;5093293;28;20028;-63
2023/07/27 03:08:10;;;;;;;9.98;5.50;;;;;;;16.67;90.61;100657.03;5093314;28;20047;-61
2023/07/27 03:10:36;;;;;;;9.23;5.45;;;;;;;16.61;90.86;100657.13;5093157;28;20111;-61
2023/07/27 03:13:01;;;;;;;8.60;5.47;;;;;;;16.56;91.30;100655.47;5075143;28;20028;-61
2023/07/27 03:15:27;;;;;;;11.73;6.25;;;;;;;16.58;91.21;100649.22;5092996;28;20028;-61
2023/07/27 03:17:52;;;;;;;8.77;5.55;;;;;;;16.56;91.77;100642.13;5093061;28;20093;-62
2023/07/27 03:20:18;;;;;;;11.95;5.45;;;;;;;16.52;92.22;100636.84;5092904;28;20504;-61
2023/07/27 03:22:43;;;;;;;8.90;5.93;;;;;;;16.48;92.41;100627.13;5093129;28;20020;-61
2023/07/27 03:25:08;;;;;;;8.73;5.70;;;;;;;16.44;92.46;100621.88;5093205;28;20059;-61
2023/07/27 03:27:34;;;;;;;9.80;5.70;;;;;;;16.40;93.33;100615.72;5093035;28;20398;-60
2023/07/27 03:29:59;;;;;;;9.05;5.65;;;;;;;16.34;93.66;100613.16;5093094;28;20024;-61
2023/07/27 03:32:24;;;;;;;8.80;6.10;;;;;;;16.32;93.54;100600.78;5092891;28;20080;-61
2023/07/27 03:34:50;;;;;;;8.95;5.95;;;;;;;16.33;94.02;100590.06;5092989;28;20055;-61
2023/07/27 03:37:15;;;;;;;9.93;5.90;;;;;;;16.28;93.95;100581.28;5093075;28;20366;-61
2023/07/27 03:39:40;;;;;;;10.88;5.75;;;;;;;16.27;94.57;100577.72;5074532;28;20048;-61
2023/07/27 03:42:06;;;;;;;9.77;5.68;;;;;;;16.27;94.83;100558.16;5092847;28;20032;-61
2023/07/27 03:44:32;;;;;;;9.40;5.95;;;;;;;16.19;95.39;100563.63;5092694;28;20028;-60
2023/07/27 03:46:57;;;;;;;11.20;6.03;;;;;;;16.06;96.25;100548.75;5092787;28;20038;-60
2023/07/27 03:49:24;;;;;;;9.50;5.97;;;;;;;15.94;97.63;100540.97;5092731;28;20486;-61
2023/07/27 03:51:49;;;;;;;10.70;6.10;;;;;;;15.77;98.81;100534.09;5092861;28;20410;-61
2023/07/27 03:54:14;;;;;;;8.25;5.70;;;;;;;15.72;99.41;100537.75;5092899;28;20032;-60
2023/07/27 03:56:40;;;;;;;10.60;5.93;;;;;;;15.69;100.00;100532.47;5092697;28;20043;-61
2023/07/27 03:59:05;;;;;;;7.95;5.53;;;;;;;15.67;100.00;100539.59;5074832;28;20032;-60
2023/07/27 04:01:31;;;;;;;9.05;5.63;;;;;;;15.70;100.00;100536.88;5092718;28;20028;-61
2023/07/27 04:03:56;;;;;;;9.23;5.38;;;;;;;15.74;100.00;100536.81;5092674;28;20028;-61
2023/07/27 04:06:21;;;;;;;10.05;5.63;;;;;;;15.74;100.00;100534.16;5092702;28;20503;-61
2023/07/27 04:08:47;;;;;;;8.27;5.63;;;;;;;15.61;100.00;100531.66;5092696;28;20039;-60
2023/07/27 04:11:13;;;;;;;8.48;5.40;;;;;;;15.54;100.00;100528.19;5092596;28;20074;-61
2023/07/27 04:13:38;;;;;;;8.02;5.32;;;;;;;15.52;100.00;100538.00;5092425;28;20406;-61
2023/07/27 04:16:05;;;;;;;7.68;5.38;;;;;;;15.47;100.00;100540.75;5092713;28;21991;-61
2023/07/27 04:18:30;;;;;;;8.23;5.40;;;;;;;15.38;100.00;100537.34;5092841;28;20055;-60
2023/07/27 04:20:56;;;;;;;9.40;5.50;;;;;;;15.33;100.00;100525.84;5096037;28;20024;-60
2023/07/27 04:23:21;;;;;;;7.38;4.93;;;;;;;15.36;100.00;100520.47;5096203;28;20419;-60
2023/07/27 04:25:46;;;;;;;7.35;4.80;;;;;;;15.40;100.00;100515.09;5096045;28;20039;-60
2023/07/27 04:28:12;;;;;;;6.88;4.60;;;;;;;15.48;100.00;100515.88;5096223;28;20467;-61
2023/07/27 04:30:37;;;;;;;6.47;4.68;;;;;;;15.47;100.00;100507.91;5096087;28;20032;-61
2023/07/27 04:33:03;;;;;;;7.35;4.68;;;;;;;15.44;100.00;100506.16;5095899;28;20024;-61
2023/07/27 04:35:28;;;;;;;5.50;3.97;;;;;;;15.38;100.00;100497.41;5095544;28;20104;-62
2023/07/27 04:37:53;;;;;;;6.53;4.30;;;;;;;15.34;100.00;100493.03;5095252;28;20031;-61
2023/07/27 04:40:19;;;;;;;5.70;3.88;;;;;;;15.34;100.00;100487.69;5095380;28;20366;-60
2023/07/27 04:42:45;;;;;;;4.97;3.80;;;;;;;15.40;100.00;100488.47;5095652;28;20165;-60
2023/07/27 04:45:10;;;;;;;6.18;3.90;;;;;;;15.39;100.00;100485.84;5095152;28;20375;-60
2023/07/27 04:47:36;;;;;;;8.38;4.07;;;;;;;15.40;100.00;100475.16;5095221;28;20135;-61
2023/07/27 04:50:03;;;;;;;5.13;3.70;;;;;;;15.32;100.00;100474.38;5095087;28;20024;-60
2023/07/27 04:52:29;;;;;;;5.20;3.55;;;;;;;15.22;100.00;100473.66;5095123;28;20059;-61
2023/07/27 04:54:54;;;;;;;5.53;4.03;;;;;;;15.22;100.00;100472.78;5095284;28;20103;-60
2023/07/27 04:57:19;;;;;;;7.88;4.30;;;;;;;15.21;100.00;100473.69;5095020;28;20045;-61
2023/07/27 04:59:45;;;;;;;5.25;4.00;;;;;;;15.26;100.00;100467.38;5094935;28;20111;-60
2023/07/27 05:02:10;;;;;;;5.60;3.80;;;;;;;15.31;100.00;100469.09;5095247;28;20473;-61
2023/07/27 05:04:35;;;;;;;7.13;4.30;;;;;;;15.34;100.00;100464.59;5094984;28;20032;-61
2023/07/27 05:07:01;;;;;;;6.47;3.85;;;;;;;15.40;100.00;100461.84;5094897;28;20028;-61
2023/07/27 05:09:26;;;;;;;6.00;3.83;;;;;;;15.41;100.00;100460.06;5094756;28;20030;-61
2023/07/27 05:11:52;;;;;;;8.02;3.80;;;;;;;15.36;100.00;100462.78;5095053;28;20026;-61
2023/07/27 05:14:17;;;;;;;6.43;4.10;;;;;;;15.36;100.00;100454.81;5094655;28;20089;-60
2023/07/27 05:16:43;;;;;;;5.75;4.30;;;;;;;15.36;100.00;100448.59;5094705;28;20051;-60
2023/07/27 05:19:08;;;;;;;5.68;3.90;;;;;;;15.31;100.00;100438.03;5094983;28;20111;-60
2023/07/27 05:21:34;;;;;;;5.55;3.70;;;;;;;15.36;100.00;100435.28;5094491;28;20116;-60
2023/07/27 05:23:59;;;;;;;5.88;3.72;;;;;;;15.35;100.00;100442.41;5094588;28;20055;-61
2023/07/27 05:26:25;;;;;;;5.80;3.70;;;;;;;15.37;100.00;100443.25;5094502;28;20073;-61
2023/07/27 05:28:50;;;;;;;6.10;3.72;;;;;;;15.38;100.00;100434.38;5094324;28;20074;-61
2023/07/27 05:31:15;;;;;;;8.65;3.97;;;;;;;15.37;100.00;100437.91;5093231;28;20497;-61
2023/07/27 05:33:41;;;;;;;5.50;3.75;;;;;;;15.37;100.00;100429.06;5076136;28;20028;-60
2023/07/27 05:36:06;;;;;;;5.30;4.00;;;;;;;15.39;100.00;100436.13;5094196;28;20460;-61
2023/07/27 05:38:32;;;;;;;4.57;3.60;;;;;;;15.42;100.00;100421.91;5094007;28;20055;-60
2023/07/27 05:41:01;;;;;;;7.43;3.70;;;;;;;15.45;100.00;100425.38;5094226;28;20410;-60
2023/07/27 05:43:26;;;;;;;4.20;3.30;;;;;;;15.50;100.00;100420.88;5094504;28;20083;-61
2023/07/27 05:45:52;;;;;;;5.13;3.65;;;;;;;15.56;100.00;100419.00;5094035;28;20505;-61
2023/07/27 05:48:17;;;;;;;6.00;3.65;;;;;;;15.56;100.00;100417.22;5094229;28;20432;-61
2023/07/27 05:50:43;;;;;;;5.15;3.45;;;;;;;15.60;100.00;100418.06;5094070;28;20097;-60
2023/07/27 05:53:08;;;;;;;5.05;3.13;;;;;;;15.59;100.00;100406.53;5094129;28;20036;-61
2023/07/27 05:55:33;;;;;;;4.75;3.35;;;;;;;15.56;100.00;100411.91;5076018;28;20107;-61
2023/07/27 05:57:59;;;;;;;4.82;3.10;;;;;;;15.55;100.00;100406.59;5075754;28;20437;-60
2023/07/27 06:00:25;;;;;;;4.63;3.20;;;;;;;15.55;100.00;100410.16;5093886;28;20111;-60
2023/07/27 06:02:50;;;;;;;4.63;3.28;;;;;;;15.57;100.00;100412.78;5094171;28;20183;-61
2023/07/27 06:05:16;;;;;;;4.97;3.22;;;;;;;15.54;100.00;100403.03;5075773;28;20031;-59
2023/07/27 06:07:42;;;;;;;4.88;3.47;;;;;;;15.59;100.00;100408.28;5093831;28;20449;-60
2023/07/27 06:10:08;;;;;;;4.80;3.38;;;;;;;15.60;100.00;100399.41;5093608;28;20028;-60
2023/07/27 06:12:34;;;;;;;4.13;3.30;;;;;;;15.61;100.00;100398.50;5093950;28;20016;-60
2023/07/27 06:14:59;;;;;;;4.55;3.15;;;;;;;15.62;100.00;100395.78;5093478;28;20542;-60
2023/07/27 06:17:27;;;;;;;3.70;2.95;;;;;;;15.68;100.00;100406.41;5093478;28;20040;-61
2023/07/27 06:19:53;;;;;;;4.95;3.13;;;;;;;15.69;100.00;100397.50;5093770;28;20353;-60
2023/07/27 06:22:18;;;;;;;4.22;3.00;;;;;;;15.73;100.00;100395.66;5093374;28;20024;-60
2023/07/27 06:24:44;;;;;;;3.60;2.85;;;;;;;15.74;100.00;100384.97;5093438;28;20035;-61
2023/07/27 06:27:09;;;;;;;3.45;2.67;;;;;;;15.84;100.00;100400.78;5093433;28;20067;-61
2023/07/27 06:29:34;;;;;;;4.22;2.90;;;;;;;15.92;100.00;100397.06;5093222;28;20028;-61
2023/07/27 06:32:00;;;;;;;6.05;3.15;;;;;;;15.98;100.00;100390.78;5093559;28;20072;-59
2023/07/27 06:34:26;;;;;;;4.25;3.10;;;;;;;16.03;100.00;100387.09;5093277;28;20483;-60
2023/07/27 06:36:51;;;;;;;4.68;2.90;;;;;;;16.07;100.00;100384.38;5093413;28;20024;-61
2023/07/27 06:39:17;;;;;;;3.67;2.88;;;;;;;16.10;100.00;100379.88;5074881;28;20067;-61
2023/07/27 06:41:42;;;;;;;4.88;3.00;;;;;;;16.16;100.00;100381.53;5092954;28;20024;-60
2023/07/27 06:44:08;;;;;;;4.00;3.00;;;;;;;16.16;100.00;100376.22;5093327;28;20153;-60
2023/07/27 06:46:34;;;;;;;4.38;3.00;;;;;;;16.19;100.00;100379.69;5075070;28;20453;-60
2023/07/27 06:48:59;;;;;;;5.13;3.10;;;;;;;16.20;100.00;100373.44;5092970;28;20024;-61
2023/07/27 06:51:25;;;;;;;3.53;2.80;;;;;;;16.23;100.00;100375.16;5093097;28;20028;-61
2023/07/27 06:53:51;;;;;;;4.43;3.00;;;;;;;16.24;100.00;100364.47;5092841;28;20028;-60
2023/07/27 06:56:19;;;;;;;4.10;3.10;;;;;;;16.24;100.00;100375.16;5092853;28;20020;-60
2023/07/27 06:58:44;;;;;;;4.18;2.90;;;;;;;16.28;100.00;100383.97;5092872;28;20131;-60
2023/07/27 07:01:10;;;;;;;3.90;2.83;;;;;;;16.33;100.00;100386.53;5093085;28;20055;-60
2023/07/27 07:03:36;;;;;;;4.18;3.00;;;;;;;16.31;100.00;100369.69;5093092;28;20032;-59
2023/07/27 07:06:02;;;;;;;4.85;3.10;;;;;;;16.34;100.00;100380.28;5092970;28;20111;-60
2023/07/27 07:08:27;;;;;;;3.17;2.67;;;;;;;16.33;100.00;100374.06;5093085;28;20190;-60
2023/07/27 07:10:52;;;;;;;3.97;2.90;;;;;;;16.41;100.00;100381.94;5092818;28;20564;-60
2023/07/27 07:13:18;;;;;;;5.40;2.72;;;;;;;16.43;100.00;100372.97;5092803;28;20024;-60
2023/07/27 07:15:45;;;;;;;5.65;2.83;;;;;;;16.47;100.00;100371.13;5092592;28;20107;-61
2023/07/27 07:18:10;;;;;;;4.35;3.17;;;;;;;16.47;100.00;100376.44;5092942;28;20036;-60
2023/07/27 07:20:36;;;;;;;4.88;3.17;;;;;;;16.45;100.00;100372.97;5092430;28;20427;-60
2023/07/27 07:23:02;;;;;;;4.00;2.78;;;;;;;16.50;100.00;100387.06;5092702;28;20024;-61
2023/07/27 07:25:27;;;;;;;4.45;2.90;;;;;;;16.55;100.00;100382.50;5092645;28;20103;-60
2023/07/27 07:27:53;;;;;;;4.22;3.10;;;;;;;16.55;100.00;100377.19;5092708;28;20024;-60
2023/07/27 07:30:18;;;;;;;5.53;3.30;;;;;;;16.54;100.00;100367.41;5074096;28;20118;-60
2023/07/27 07:32:44;;;;;;;4.72;3.30;;;;;;;16.58;100.00;100379.78;5072505;28;20080;-60
2023/07/27 07:35:09;;;;;;;4.43;3.10;;;;;;;16.63;100.00;100391.22;5072291;28;20113;-60
2023/07/27 07:37:34;;;;;;;7.00;3.40;;;;;;;16.66;100.00;100366.25;5072272;28;20028;-60
2023/07/27 07:40:00;;;;;;;4.70;3.30;;;;;;;16.66;100.00;100369.81;5072017;28;20045;-60
2023/07/27 07:42:25;;;;;;;3.72;3.10;;;;;;;16.74;100.00;100367.91;5072285;28;20037;-60
2023/07/27 07:44:51;;;;;;;3.63;2.92;;;;;;;16.83;100.00;100355.25;5072278;28;20104;-61
2023/07/27 07:47:16;;;;;;;4.63;3.00;;;;;;;16.92;100.00;100360.41;5072216;28;20439;-60
2023/07/27 07:49:42;;;;;;;3.80;3.00;;;;;;;16.98;100.00;100358.44;5072625;28;20036;-61
2023/07/27 07:52:07;;;;;;;4.80;2.80;;;;;;;17.05;100.00;100356.53;5054011;28;20020;-61
2023/07/27 07:54:33;;;;;;;3.10;2.58;;;;;;;17.12;100.00;100357.25;5074483;28;20074;-60
2023/07/27 07:56:58;;;;;;;3.33;2.60;;;;;;;17.10;100.00;100349.28;5075786;28;20470;-60
2023/07/27 07:59:24;;;;;;;4.45;2.65;;;;;;;17.12;100.00;100357.25;5075855;28;20070;-61
2023/07/27 08:01:49;;;;;;;3.30;2.70;;;;;;;17.12;100.00;100347.44;5076004;28;20025;-61
2023/07/27 08:04:15;;;;;;;4.85;2.60;;;;;;;17.12;100.00;100358.13;5075806;28;20074;-61
2023/07/27 08:06:40;;;;;;;3.50;2.63;;;;;;;17.11;100.00;100348.34;5076052;28;20040;-60
2023/07/27 08:09:06;;;;;;;2.95;2.60;;;;;;;17.16;100.00;100353.59;5075619;28;20029;-60
2023/07/27 08:11:32;;;;;;;3.10;2.58;;;;;;;17.16;100.00;100353.59;5075697;28;20033;-60
2023/07/27 08:14:02;;;;;;;3.90;2.70;;;;;;;17.21;100.00;100349.00;5075793;28;20075;-60
2023/07/27 08:16:30;;;;;;;4.97;2.85;;;;;;;17.22;100.00;100351.66;5075845;28;20029;-60
2023/07/27 08:18:56;;;;;;;4.32;2.38;;;;;;;17.28;100.00;100348.81;5075536;28;20024;-60
2023/07/27 08:21:21;;;;;;;4.93;2.50;;;;;;;17.35;100.00;100351.34;5075577;28;20107;-60
2023/07/27 08:23:47;;;;;;;2.90;2.40;;;;;;;17.41;100.00;100348.53;5075309;28;20519;-60
2023/07/27 08:26:14;;;;;;;2.80;2.33;;;;;;;17.41;100.00;100345.84;5074996;28;20493;-60
2023/07/27 08:28:40;;;;;;;4.95;2.30;;;;;;;17.45;100.00;100348.41;5075444;28;20071;-60
2023/07/27 08:31:06;;;;;;;2.53;2.30;;;;;;;17.48;100.00;100350.13;5075121;28;20028;-59
2023/07/27 08:33:32;;;;;;;2.80;2.40;;;;;;;17.53;100.00;100342.88;5075336;28;20086;-59
2023/07/27 08:35:57;;;;;;;2.92;2.50;;;;;;;17.59;100.00;100340.03;5075369;28;20070;-60
2023/07/27 08:38:24;;;;;;;2.80;2.40;;;;;;;17.62;100.00;100342.63;5075512;28;20036;-60
2023/07/27 08:41:07;;;;;;;6.70;2.47;;;;;;;17.70;100.00;100335.28;5074917;28;20138;-60
2023/07/27 08:43:33;;;;;;;3.72;2.75;;;;;;;17.75;100.00;100337.88;5075048;28;20028;-60
2023/07/27 08:46:00;;;;;;;4.03;3.03;;;;;;;17.80;100.00;100346.63;5074840;28;20082;-60
2023/07/27 08:48:27;;;;;;;3.97;2.60;;;;;;;17.82;100.00;100339.47;5075086;28;20063;-60
2023/07/27 08:50:53;;;;;;;2.60;2.40;;;;;;;17.86;100.00;100335.78;5074804;28;20025;-61
2023/07/27 08:53:18;;;;;;;4.03;2.50;;;;;;;17.92;100.00;100343.63;5057334;28;20036;-60
2023/07/27 08:55:44;;;;;;;4.18;2.60;;;;;;;17.99;100.00;100339.88;5074939;28;20386;-60
2023/07/27 08:58:10;;;;;;;2.83;2.40;;;;;;;18.03;100.00;100335.31;5074902;28;20052;-59
2023/07/27 09:00:39;;;;;;;2.45;2.20;;;;;;;18.10;100.00;100336.00;5074790;28;20028;-60
2023/07/27 09:03:07;;;;;;;3.33;2.50;;;;;;;18.13;100.00;100341.28;5074947;28;20370;-59
2023/07/27 09:05:55;;;;;;;2.47;2.10;;;;;;;18.11;100.00;100346.66;5073799;28;20028;-60
2023/07/27 09:08:20;;;;;;;2.50;2.30;;;;;;;18.06;100.00;100335.22;5074635;28;20032;-61
2023/07/27 09:10:46;;;;;;;3.25;2.28;;;;;;;18.07;100.00;100344.97;5074626;28;20082;-59
2023/07/27 09:13:12;;;;;;;2.83;2.38;;;;;;;18.07;100.00;100342.31;5074710;28;20394;-60
2023/07/27 09:15:43;;;;;;;2.60;2.30;;;;;;;18.04;100.00;100341.53;5074407;28;20021;-60
2023/07/27 09:18:11;;;;;;;2.88;2.20;;;;;;;18.07;100.00;100334.28;5074601;28;20036;-60
2023/07/27 09:20:37;;;;;;;4.28;2.47;;;;;;;18.11;100.00;100345.78;5074150;28;20131;-60
2023/07/27 09:23:02;;;;;;;2.80;2.33;;;;;;;18.12;100.00;100332.38;5074337;28;20031;-60
2023/07/27 09:25:27;;;;;;;3.90;2.30;;;;;;;18.16;100.00;100333.19;5056512;28;20028;-60
2023/07/27 09:27:54;;;;;;;2.40;2.10;;;;;;;18.15;100.00;100336.75;5074463;28;20371;-60
2023/07/27 09:30:22;;;;;;;2.38;1.95;;;;;;;18.14;100.00;100326.97;5074126;28;20040;-60
2023/07/27 09:32:49;;;;;;;3.75;2.20;;;;;;;18.17;100.00;100332.25;5074434;28;20020;-60
2023/07/27 09:35:16;;;;;;;2.90;2.17;;;;;;;18.18;100.00;100332.19;5074021;28;20020;-60
2023/07/27 09:37:49;;;;;;;3.30;2.30;;;;;;;18.25;100.00;100327.56;5074447;28;20028;-60
2023/07/27 09:40:23;;;;;;;3.90;2.40;;;;;;;18.24;100.00;100334.72;5073841;28;20504;-61
2023/07/27 09:42:48;;;;;;;5.15;2.20;;;;;;;18.25;100.00;100328.44;5074079;28;20032;-60
2023/07/27 09:45:14;;;;;;;3.50;2.20;;;;;;;18.30;100.00;100325.63;5073734;28;20031;-61
2023/07/27 09:47:41;;;;;;;3.17;2.20;;;;;;;18.29;100.00;100337.25;5073858;28;20032;-61
2023/07/27 09:50:08;;;;;;;3.58;2.10;;;;;;;18.29;100.00;100329.22;5074018;28;20077;-60
2023/07/27 09:52:35;;;;;;;3.10;2.20;;;;;;;18.32;100.00;100326.44;5055844;28;20059;-60
2023/07/27 09:55:00;;;;;;;7.00;2.38;;;;;;;18.41;100.00;100331.50;5073944;28;20036;-60
2023/07/27 09:57:27;;;;;;;3.38;2.22;;;;;;;18.43;100.00;100332.34;5073687;28;20370;-60
2023/07/27 09:59:53;;;;;;;3.40;2.30;;;;;;;18.38;100.00;100328.06;5055917;28;20029;-60
2023/07/27 10:02:21;;;;;;;2.88;2.13;;;;;;;18.36;100.00;100328.09;5073699;28;20414;-61
2023/07/27 10:04:49;;;;;;;3.95;1.88;;;;;;;18.32;100.00;100330.91;5073593;28;20097;-60
2023/07/27 10:07:16;;;;;;;2.95;2.00;;;;;;;18.35;100.00;100325.50;5073628;28;20058;-60
2023/07/27 10:09:42;;;;;;;3.17;1.80;;;;;;;18.43;100.00;100337.72;5073394;28;20059;-59
2023/07/27 10:12:07;;;;;;;2.40;2.17;;;;;;;18.49;100.00;100336.63;5073152;28;20052;-60
2023/07/27 10:14:33;;;;;;;4.65;2.30;;;;;;;18.53;100.00;100335.63;5072722;28;20466;-59
2023/07/27 10:17:08;;;;;;;3.55;2.13;;;;;;;18.63;100.00;100323.75;5071881;28;20028;-60
2023/07/27 10:19:53;;;;;;;4.25;2.17;;;;;;;18.78;100.00;100333.13;5070810;28;20021;-60
2023/07/27 10:22:19;;;;;;;2.95;2.40;;;;;;;18.79;100.00;100329.50;5070950;28;20513;-60
2023/07/27 10:24:59;;;;;;;4.20;2.30;;;;;;;18.83;100.00;100325.81;5054806;28;20163;-59
2023/07/27 10:27:24;;;;;;;2.60;2.40;;;;;;;18.81;100.00;100333.03;5072736;28;20100;-59
2023/07/27 10:30:09;;;;;;;2.65;2.10;;;;;;;18.81;100.00;100330.34;5069536;28;20173;-59
2023/07/27 10:32:36;;;;;;;3.70;2.08;;;;;;;18.77;100.00;100332.25;5070224;28;20497;-60
2023/07/27 10:35:06;;;;;;;3.17;2.22;;;;;;;18.79;100.00;100326.81;5072397;28;20025;-60
2023/07/27 10:37:52;;;;;;;3.08;1.90;;;;;;;18.81;100.00;100333.03;5070052;28;20028;-60
2023/07/27 10:40:25;;;;;;;2.92;2.00;;;;;;;18.80;100.00;100335.72;5070139;28;20554;-59
2023/07/27 10:42:58;;;;;;;2.17;1.95;;;;;;;18.76;100.00;100338.53;5069581;28;20040;-59
2023/07/27 10:45:25;;;;;;;2.33;2.03;;;;;;;18.73;100.00;100325.22;5053950;28;20028;-59
2023/07/27 10:47:56;;;;;;;3.25;2.00;;;;;;;18.73;100.00;100335.06;5069533;28;20025;-59
2023/07/27 10:50:22;;;;;;;3.33;2.10;;;;;;;18.70;100.00;100333.34;5072071;28;20021;-60
2023/07/27 10:52:52;;;;;;;4.45;2.00;;;;;;;18.63;100.00;100330.88;5072310;28;20344;-60
2023/07/27 10:55:19;;;;;;;2.70;2.20;;;;;;;18.64;100.00;100329.97;5072308;28;20098;-59
2023/07/27 10:57:46;;;;;;;2.35;2.10;;;;;;;18.64;100.00;100329.97;5071846;28;20036;-60
2023/07/27 11:00:13;;;;;;;3.55;2.03;;;;;;;18.69;100.00;100338.72;5069340;28;20390;-59
2023/07/27 11:02:39;;;;;;;3.17;2.28;;;;;;;18.69;100.00;100328.94;5071864;28;20363;-61
2023/07/27 11:05:09;;;;;;;2.10;1.90;;;;;;;18.71;100.00;100342.25;5072314;28;20479;-59
2023/07/27 11:07:37;;;;;;;2.42;2.00;;;;;;;18.70;100.00;100338.69;5072722;28;20028;-60
2023/07/27 11:10:08;;;;;;;2.22;2.00;;;;;;;18.70;100.00;100343.19;5072592;28;20023;-60
2023/07/27 11:12:46;;;;;;;2.67;1.90;;;;;;;18.71;100.00;100336.91;5072531;28;20075;-60
2023/07/27 11:15:18;;;;;;;2.15;1.90;;;;;;;18.68;100.00;100334.31;5072339;28;20108;-60
2023/07/27 11:17:44;;;;;;;2.20;2.00;;;;;;;18.70;100.00;100336.03;5072315;28;20029;-60